Redondo Beach, California
Current Conditions -  °F | °C
As of 9:53 AM on Friday 28 Nov 2014 (Local Time) from KHHR Reporting Station
Clear Clear  
Wind Chill: 71°   Ceiling: Unl
Heat Index: 71°   Visibility: 10mi
Dew Point: 37°   Wind: 3mph
Humidity: 29%   Direction: 110°ESE
Pressure: 30.01"   Gusts: NA
Location:  33.84°N, 118.38°W
Report Text: KHHR 281753Z 11003KT 10SM CLR 22/03 A3001 RMK AO2 SLP159 T02170028 10217 20117 50006
Loading
Personal Weather Stations






























Interactive Weather Map New forecast layout! Learn more

10-Day Weather Forecast

Advertisements
Track Severe Weather on mobile